Time;durP1;ratioP1;P1;durP2;ratioP2;P2;SDS_P1;SDS_P2;PMS_P1;PMS_P2;Temp;Humidity;BMP_temperature;BMP_pressure;BME280_temperature;BME280_humidity;BME280_pressure;Samples;Min_cycle;Max_cycle;Signal;HPM_P1;HPM_P2
2022/02/27 00:01:42;;;;;;;16.02;4.97;;;0.10;88.50;;;-1.26;73.91;98675.69;5047853;28;20469;-77
2022/02/27 00:04:09;;;;;;;15.10;4.80;;;0.10;88.80;;;-1.26;73.95;98676.50;5047564;28;20857;-76
2022/02/27 00:06:35;;;;;;;10.75;4.40;;;0.10;89.20;;;-1.44;73.79;98683.44;5040845;28;20423;-76
2022/02/27 00:09:01;;;;;;;10.00;4.03;;;0.00;88.90;;;-1.53;74.23;98673.09;5039439;28;20426;-75
2022/02/27 00:11:27;;;;;;;18.63;5.13;;;0.00;89.10;;;-1.44;74.53;98673.06;5047761;28;20414;-75
2022/02/27 00:13:53;;;;;;;12.30;4.90;;;0.00;89.40;;;-1.51;74.18;98669.41;5046915;22;20447;-75
2022/02/27 00:16:19;;;;;;;18.30;5.40;;;-0.10;89.30;;;-1.41;74.70;98669.31;5049053;28;20405;-75
2022/02/27 00:18:44;;;;;;;12.18;4.80;;;0.00;89.60;;;-1.44;74.48;98672.22;5051271;28;20404;-75
2022/02/27 00:21:12;;;;;;;14.68;5.20;;;0.00;89.70;;;-1.45;74.80;98671.41;5051067;28;20401;-75
2022/02/27 00:23:38;;;;;;;17.95;5.82;;;-0.10;89.70;;;-1.45;74.54;98671.41;5050498;28;20413;-74
2022/02/27 00:26:03;;;;;;;16.00;5.30;;;-0.10;90.00;;;-1.44;74.91;98672.22;5065019;22;20692;-75
2022/02/27 00:28:30;;;;;;;14.45;5.40;;;-0.10;90.50;;;-1.47;75.48;98685.50;5051031;28;20440;-75
2022/02/27 00:30:55;;;;;;;13.05;4.80;;;-0.10;90.20;;;-1.66;75.44;98683.81;5047729;28;20805;-75
2022/02/27 00:33:21;;;;;;;14.27;4.35;;;-0.20;90.10;;;-1.77;75.56;98682.19;5045435;28;20447;-75
2022/02/27 00:35:47;;;;;;;14.40;4.88;;;-0.30;90.10;;;-1.71;75.38;98673.00;5050720;28;20492;-75
2022/02/27 00:38:14;;;;;;;14.17;4.73;;;-0.20;90.20;;;-1.82;75.22;98673.19;5050438;28;20509;-74
2022/02/27 00:40:40;;;;;;;16.08;5.57;;;-0.30;90.20;;;-1.87;75.70;98668.41;5050833;28;20401;-75
2022/02/27 00:43:06;;;;;;;14.50;5.90;;;-0.30;90.30;;;-1.86;75.52;98677.00;5050216;28;20421;-75
2022/02/27 00:45:33;;;;;;;13.15;6.07;;;-0.30;90.30;;;-1.81;75.38;98680.84;5050463;28;20397;-75
2022/02/27 00:47:59;;;;;;;18.90;7.15;;;-0.30;90.40;;;-1.85;76.05;98679.47;5041971;28;20401;-75
2022/02/27 00:50:25;;;;;;;16.85;6.40;;;-0.30;90.50;;;-1.98;75.49;98674.59;5050650;28;20404;-74
2022/02/27 00:52:51;;;;;;;12.30;5.55;;;-0.50;90.30;;;-2.00;75.98;98676.50;5050145;28;20385;-75
2022/02/27 00:55:18;;;;;;;18.25;6.70;;;-0.50;90.40;;;-1.98;75.88;98682.38;5050382;28;20495;-75
2022/02/27 00:57:44;;;;;;;17.92;7.30;;;-0.40;90.60;;;-1.85;76.44;98683.84;5050149;28;20405;-75
2022/02/27 01:00:11;;;;;;;20.92;8.02;;;-0.40;90.80;;;-1.84;76.69;98677.69;5050404;28;20404;-75
2022/02/27 01:02:37;;;;;;;21.10;7.60;;;-0.40;90.80;;;-1.83;76.41;98672.38;5049642;28;20413;-74
2022/02/27 01:05:04;;;;;;;21.88;7.63;;;-0.40;90.80;;;-1.96;76.33;98669.28;5050175;28;20755;-74
2022/02/27 01:07:30;;;;;;;25.13;7.83;;;-0.40;90.70;;;-1.87;76.64;98672.78;5049923;28;20409;-74
2022/02/27 01:09:56;;;;;;;18.33;7.57;;;-0.50;90.80;;;-1.90;77.14;98675.66;5050268;28;20764;-76
2022/02/27 01:12:23;;;;;;;18.75;7.88;;;-0.40;91.00;;;-1.94;76.96;98675.13;5048724;28;20934;-74
2022/02/27 01:14:49;;;;;;;20.38;6.95;;;-0.50;91.00;;;-2.05;77.04;98670.09;5050099;28;20401;-73
2022/02/27 01:17:15;;;;;;;15.47;6.40;;;-0.60;91.00;;;-2.09;76.66;98668.72;5049719;28;20397;-74
2022/02/27 01:19:41;;;;;;;15.63;6.80;;;-0.50;91.00;;;-2.11;76.63;98668.91;5050183;28;20389;-74
2022/02/27 01:22:07;;;;;;;21.50;7.20;;;-0.60;91.00;;;-2.00;76.78;98663.53;5049259;28;20760;-74
2022/02/27 01:24:33;;;;;;;16.60;6.55;;;-0.60;91.00;;;-2.12;76.93;98669.03;5049829;28;20424;-74
2022/02/27 01:26:59;;;;;;;16.30;6.47;;;-0.60;91.00;;;-2.12;77.29;98669.03;5049310;28;20405;-74
2022/02/27 01:29:26;;;;;;;13.55;5.72;;;-0.60;91.20;;;-2.27;77.05;98666.06;5049990;28;20450;-73
2022/02/27 01:31:52;;;;;;;13.88;5.95;;;-0.70;91.10;;;-2.29;77.36;98665.38;5049197;28;20917;-74
2022/02/27 01:34:18;;;;;;;13.77;6.97;;;-0.70;91.10;;;-2.10;77.70;98656.72;5049845;28;20504;-73
2022/02/27 01:36:44;;;;;;;17.02;6.93;;;-0.70;91.40;;;-2.15;77.46;98649.38;5049250;28;20452;-75
2022/02/27 01:39:10;;;;;;;18.20;6.75;;;-0.70;91.40;;;-2.10;77.67;98644.56;5049303;28;20413;-75
2022/02/27 01:41:36;;;;;;;16.42;6.70;;;-0.70;91.50;;;-2.22;77.79;98648.28;5049472;28;20409;-74
2022/02/27 01:44:02;;;;;;;20.77;7.13;;;-0.70;91.50;;;-2.17;77.78;98637.47;5049404;28;20504;-75
2022/02/27 01:46:29;;;;;;;13.98;6.50;;;-0.70;91.50;;;-2.17;77.49;98638.31;5049246;28;21191;-74
2022/02/27 01:48:55;;;;;;;18.70;6.72;;;-0.70;91.50;;;-2.28;77.73;98645.44;5049795;28;20492;-75
2022/02/27 01:51:21;;;;;;;15.33;5.97;;;-0.80;91.40;;;-2.38;77.62;98641.09;5049612;28;20432;-74
2022/02/27 01:53:47;;;;;;;12.45;5.60;;;-0.80;91.40;;;-2.43;77.78;98643.28;5049129;28;20396;-74
2022/02/27 01:56:14;;;;;;;16.60;6.05;;;-0.90;91.40;;;-2.47;78.13;98633.31;5049310;28;20972;-74
2022/02/27 01:58:40;;;;;;;12.00;5.40;;;-0.90;91.50;;;-2.50;78.14;98641.38;5049823;28;20402;-73
2022/02/27 02:01:06;;;;;;;15.85;5.82;;;-0.90;91.50;;;-2.47;77.92;98639.31;5049550;28;20411;-73
2022/02/27 02:03:33;;;;;;;12.98;5.00;;;-0.90;91.60;;;-2.60;77.74;98643.97;5048822;28;20413;-74
2022/02/27 02:05:59;;;;;;;16.57;4.83;;;-1.00;91.50;;;-2.66;78.10;98641.94;5040959;28;20489;-74
2022/02/27 02:08:25;;;;;;;14.25;5.20;;;-1.10;91.50;;;-2.56;78.15;98649.72;5049589;28;20488;-74
2022/02/27 02:10:50;;;;;;;15.35;5.63;;;-1.10;91.60;;;-2.58;78.20;98644.66;5049701;28;20555;-74
2022/02/27 02:13:16;;;;;;;10.63;4.95;;;-1.10;91.70;;;-2.64;78.63;98642.63;5049004;28;20710;-74
2022/02/27 02:15:42;;;;;;;13.68;5.55;;;-1.10;91.70;;;-2.67;78.42;98640.28;5049352;28;20428;-74
2022/02/27 02:18:09;;;;;;;11.50;4.93;;;-1.10;91.70;;;-2.73;78.51;98640.84;5048870;28;20401;-74
2022/02/27 02:20:37;;;;;;;19.33;6.32;;;-1.20;91.70;;;-2.55;78.87;98636.59;5049481;28;20436;-74
2022/02/27 02:23:04;;;;;;;12.18;5.53;;;-1.10;91.90;;;-2.67;78.24;98637.69;5049459;28;20452;-73
2022/02/27 02:25:30;;;;;;;19.42;6.85;;;-1.10;91.90;;;-2.58;78.77;98639.47;5053104;28;20401;-73
2022/02/27 02:27:57;;;;;;;20.02;6.70;;;-1.10;92.00;;;-2.52;78.78;98635.50;5052863;28;20405;-73
2022/02/27 02:30:23;;;;;;;14.88;6.13;;;-1.10;92.10;;;-2.63;78.83;98626.09;5053383;28;20450;-74
2022/02/27 02:32:51;;;;;;;9.02;5.20;;;-1.10;92.10;;;-2.76;78.80;98628.97;5052627;28;21077;-74
2022/02/27 02:35:18;;;;;;;13.18;6.20;;;-1.20;92.00;;;-2.71;78.84;98632.94;5053100;28;20437;-73
2022/02/27 02:37:46;;;;;;;14.32;5.68;;;-1.20;92.10;;;-2.83;79.14;98627.06;5051954;28;20827;-73
2022/02/27 02:40:12;;;;;;;20.30;5.95;;;-1.30;92.00;;;-2.69;78.93;98626.63;5053603;28;20816;-74
2022/02/27 02:42:39;;;;;;;18.47;6.73;;;-1.30;92.20;;;-2.71;79.29;98617.38;5052396;28;20827;-73
2022/02/27 02:45:07;;;;;;;16.58;6.57;;;-1.20;92.40;;;-2.78;79.24;98615.31;5055418;28;20401;-75
2022/02/27 02:47:33;;;;;;;12.40;5.13;;;-1.20;92.40;;;-2.84;79.56;98623.66;5055242;28;20874;-75
2022/02/27 02:49:59;;;;;;;16.63;6.00;;;-1.30;92.20;;;-2.81;79.51;98620.78;5053019;28;20968;-75
2022/02/27 02:52:25;;;;;;;13.88;5.18;;;-1.30;92.40;;;-2.84;79.76;98615.88;5052388;28;20393;-75
2022/02/27 02:54:52;;;;;;;10.82;5.13;;;-1.30;92.40;;;-2.88;79.24;98624.06;5052709;28;20396;-75
2022/02/27 02:57:18;;;;;;;13.90;5.53;;;-1.30;92.40;;;-2.94;79.59;98622.84;5052461;28;20406;-75
2022/02/27 02:59:44;;;;;;;13.77;5.20;;;-1.40;92.30;;;-2.95;79.44;98616.03;5052913;28;20397;-75
2022/02/27 03:02:10;;;;;;;19.57;6.10;;;-1.40;92.30;;;-2.87;79.43;98615.34;5051850;28;20416;-75
2022/02/27 03:04:36;;;;;;;22.63;5.97;;;-1.40;92.50;;;-2.89;79.75;98612.06;5045025;28;20419;-75
2022/02/27 03:07:03;;;;;;;18.70;5.93;;;-1.30;92.50;;;-2.92;79.46;98613.13;5032373;28;20399;-74
2022/02/27 03:09:29;;;;;;;10.00;4.55;;;-1.40;92.50;;;-3.06;79.39;98608.38;5040906;28;20463;-74
2022/02/27 03:11:56;;;;;;;9.73;5.07;;;-1.50;92.40;;;-3.06;79.88;98607.53;5043225;28;20401;-74
2022/02/27 03:14:22;;;;;;;14.77;5.40;;;-1.50;92.40;;;-3.06;79.74;98600.59;5052367;28;20398;-74
2022/02/27 03:16:47;;;;;;;12.15;4.85;;;-1.50;92.50;;;-3.14;79.76;98603.03;5051858;28;20412;-74
2022/02/27 03:19:13;;;;;;;11.57;5.65;;;-1.60;92.40;;;-3.05;79.68;98604.00;5052448;28;20918;-74
2022/02/27 03:21:39;;;;;;;12.67;5.40;;;-1.60;92.50;;;-3.15;80.20;98603.97;5051826;28;20511;-73
2022/02/27 03:24:06;;;;;;;14.38;5.80;;;-1.60;92.60;;;-3.04;80.34;98605.66;5052239;28;20763;-73
2022/02/27 03:26:32;;;;;;;10.45;5.20;;;-1.50;92.70;;;-3.21;79.62;98599.34;5051672;28;20492;-74
2022/02/27 03:28:59;;;;;;;14.70;5.70;;;-1.60;92.50;;;-3.13;79.96;98607.28;5052332;28;20405;-73
2022/02/27 03:31:25;;;;;;;14.60;5.40;;;-1.60;92.60;;;-3.15;80.13;98603.97;5052069;28;20401;-73
2022/02/27 03:33:51;;;;;;;13.55;5.78;;;-1.60;92.70;;;-3.13;80.02;98597.72;5049620;28;20412;-73
2022/02/27 03:36:17;;;;;;;14.00;5.67;;;-1.60;92.70;;;-3.08;79.94;98594.72;5050469;28;20572;-75
2022/02/27 03:38:43;;;;;;;14.60;5.55;;;-1.60;92.70;;;-3.20;80.25;98596.63;5051899;28;20398;-75
2022/02/27 03:41:09;;;;;;;17.17;5.68;;;-1.60;92.70;;;-3.17;80.18;98604.16;5051870;28;20477;-74
2022/02/27 03:43:35;;;;;;;13.95;5.50;;;-1.70;92.70;;;-3.28;80.43;98601.66;5051465;28;20911;-75
2022/02/27 03:46:03;;;;;;;22.60;6.63;;;-1.70;92.70;;;-3.06;80.70;98599.78;5051464;28;20408;-74
2022/02/27 03:48:29;;;;;;;10.63;5.15;;;-1.70;92.90;;;-3.20;80.78;98604.41;5051902;28;20433;-74
2022/02/27 03:50:55;;;;;;;13.60;5.32;;;-1.60;92.90;;;-3.30;80.70;98610.50;5051837;28;20410;-73
2022/02/27 03:53:22;;;;;;;15.93;5.30;;;-1.70;92.80;;;-3.21;80.59;98609.72;5051194;28;20768;-74
2022/02/27 03:55:48;;;;;;;12.60;5.22;;;-1.70;93.00;;;-3.20;80.95;98611.34;5051705;28;20401;-74
2022/02/27 03:58:14;;;;;;;16.25;5.28;;;-1.70;93.00;;;-3.24;80.96;98613.41;5051556;28;20459;-74
2022/02/27 04:00:40;;;;;;;14.82;4.78;;;-1.70;93.00;;;-3.29;80.47;98614.72;5051497;28;20883;-74
2022/02/27 04:03:08;;;;;;;11.75;4.85;;;-1.70;93.00;;;-3.28;80.73;98614.59;5050859;28;20425;-73
2022/02/27 04:05:35;;;;;;;11.15;4.85;;;-1.70;93.00;;;-3.35;81.11;98620.44;5051446;28;20401;-74
2022/02/27 04:08:01;;;;;;;9.07;4.45;;;-1.80;92.90;;;-3.42;80.56;98612.41;5051306;28;20492;-74
2022/02/27 04:10:27;;;;;;;13.93;5.70;;;-1.80;92.90;;;-3.30;80.89;98616.50;5051516;28;20483;-75
2022/02/27 04:12:53;;;;;;;9.63;4.90;;;-1.70;93.00;;;-3.39;80.86;98619.91;5050902;28;20406;-74
2022/02/27 04:15:19;;;;;;;14.95;5.20;;;-1.80;93.00;;;-3.29;80.56;98620.72;5042559;28;20429;-74
2022/02/27 04:17:45;;;;;;;12.43;5.20;;;-1.80;93.00;;;-3.34;80.47;98619.50;5050865;28;20436;-74
2022/02/27 04:20:12;;;;;;;10.30;5.30;;;-1.80;93.00;;;-3.43;81.03;98623.69;5051618;28;20481;-73
2022/02/27 04:22:38;;;;;;;15.80;5.80;;;-1.90;93.00;;;-3.35;81.08;98626.44;5050719;28;20436;-74
2022/02/27 04:25:05;;;;;;;11.95;5.10;;;-1.80;93.10;;;-3.43;81.23;98623.69;5042748;28;20413;-73
2022/02/27 04:27:31;;;;;;;13.20;5.30;;;-1.90;93.10;;;-3.37;81.16;98628.34;5050361;28;20401;-73
2022/02/27 04:29:57;;;;;;;16.15;5.47;;;-1.80;93.20;;;-3.33;80.97;98623.72;5051089;28;20412;-73
2022/02/27 04:32:23;;;;;;;14.02;5.65;;;-1.80;93.20;;;-3.46;80.80;98630.94;5050637;28;20493;-74
2022/02/27 04:34:49;;;;;;;17.02;6.22;;;-1.90;93.10;;;-3.27;81.17;98629.19;5051054;28;20982;-74
2022/02/27 04:37:18;;;;;;;15.68;6.10;;;-1.80;93.30;;;-3.40;81.44;98623.44;5050631;28;20416;-73
2022/02/27 04:39:44;;;;;;;15.13;5.72;;;-1.80;93.30;;;-3.30;81.72;98626.03;5051026;28;20883;-74
2022/02/27 04:42:10;;;;;;;13.23;5.22;;;-1.80;93.30;;;-3.47;81.26;98626.69;5050028;28;20423;-74
2022/02/27 04:44:36;;;;;;;12.20;5.17;;;-1.90;93.30;;;-3.46;81.22;98629.16;5050786;28;20421;-74
2022/02/27 04:47:02;;;;;;;9.90;4.90;;;-1.90;93.30;;;-3.52;81.06;98629.66;5050324;28;20480;-74
2022/02/27 04:49:28;;;;;;;16.77;6.63;;;-1.90;93.30;;;-3.47;81.35;98630.09;5050871;28;20906;-74
2022/02/27 04:51:54;;;;;;;14.70;5.88;;;-2.00;93.30;;;-3.46;81.78;98626.56;5050135;28;20489;-74
2022/02/27 04:54:22;;;;;;;13.88;5.30;;;-1.90;93.30;;;-3.59;81.31;98629.38;5050772;28;20551;-74
2022/02/27 04:56:48;;;;;;;16.90;6.45;;;-2.00;93.30;;;-3.54;81.56;98632.41;5050277;28;20405;-74
2022/02/27 04:59:14;;;;;;;20.17;6.07;;;-2.00;93.30;;;-3.58;81.19;98635.38;5050628;28;20397;-74
2022/02/27 05:01:40;;;;;;;15.77;5.15;;;-2.00;93.30;;;-3.59;81.40;98631.16;5049826;28;20450;-74
2022/02/27 05:04:06;;;;;;;12.85;5.75;;;-2.00;93.40;;;-3.58;81.73;98625.84;5050351;28;20413;-73
2022/02/27 05:06:33;;;;;;;13.85;5.32;;;-2.00;93.40;;;-3.61;81.48;98630.47;5050057;28;20397;-73
2022/02/27 05:08:59;;;;;;;18.42;5.45;;;-2.10;93.30;;;-3.58;81.67;98627.59;5050398;28;20937;-73
2022/02/27 05:11:27;;;;;;;10.70;5.95;;;-2.00;93.40;;;-3.61;81.33;98618.34;5050243;28;20424;-74
2022/02/27 05:13:53;;;;;;;16.03;6.23;;;-2.10;93.30;;;-3.52;81.37;98625.31;5049584;28;20479;-73
2022/02/27 05:16:19;;;;;;;12.83;5.70;;;-2.00;93.40;;;-3.65;81.58;98618.75;5049902;28;20546;-74
2022/02/27 05:18:45;;;;;;;18.58;6.78;;;-2.10;93.40;;;-3.56;81.62;98623.13;5050344;28;20489;-73
2022/02/27 05:21:11;;;;;;;12.10;5.55;;;-2.10;93.50;;;-3.70;81.77;98628.66;5049946;28;20406;-74
2022/02/27 05:23:37;;;;;;;18.37;5.93;;;-2.10;93.40;;;-3.63;81.87;98632.38;5049615;28;20530;-73
2022/02/27 05:26:02;;;;;;;20.50;7.18;;;-2.10;93.50;;;-3.57;81.96;98626.66;5049621;28;20493;-73
2022/02/27 05:28:30;;;;;;;12.30;5.78;;;-2.10;93.60;;;-3.70;82.08;98628.66;5050032;28;20444;-74
2022/02/27 05:30:56;;;;;;;13.18;5.55;;;-2.10;93.60;;;-3.67;81.90;98634.38;5046900;28;20411;-74
2022/02/27 05:33:22;;;;;;;19.15;6.85;;;-2.10;93.90;;;-3.65;81.77;98645.44;5044453;28;20393;-73
2022/02/27 05:35:48;;;;;;;14.23;6.22;;;-2.10;93.60;;;-3.66;82.18;98640.38;5050025;28;20405;-72
2022/02/27 05:38:14;;;;;;;16.35;7.18;;;-2.20;93.60;;;-3.57;82.36;98634.44;5049778;28;20467;-74
2022/02/27 05:40:40;;;;;;;15.57;6.15;;;-2.10;93.70;;;-3.71;81.96;98642.56;5050173;28;20401;-73
2022/02/27 05:43:07;;;;;;;12.27;5.78;;;-2.10;93.70;;;-3.79;81.89;98648.38;5050280;28;20409;-73
2022/02/27 05:45:35;;;;;;;16.77;6.18;;;-2.20;93.70;;;-3.76;82.11;98642.91;5050195;28;20467;-73
2022/02/27 05:48:01;;;;;;;11.52;6.10;;;-2.20;93.70;;;-3.82;81.82;98646.03;5052823;28;20413;-74
2022/02/27 05:50:27;;;;;;;15.52;6.95;;;-2.20;93.70;;;-3.75;82.02;98654.09;5052370;28;20485;-73
2022/02/27 05:52:53;;;;;;;12.93;6.32;;;-2.20;93.70;;;-3.77;82.02;98650.84;5048969;28;20512;-73
2022/02/27 05:55:19;;;;;;;15.73;6.75;;;-2.20;93.60;;;-3.70;82.11;98657.13;5049646;28;20871;-75
2022/02/27 05:57:45;;;;;;;13.05;5.80;;;-2.20;93.70;;;-3.85;82.20;98651.47;5049326;28;20394;-74
2022/02/27 06:00:12;;;;;;;17.23;6.57;;;-2.30;93.60;;;-3.79;82.23;98652.72;5053924;28;20492;-75
2022/02/27 06:02:39;;;;;;;14.93;6.22;;;-2.20;93.70;;;-3.85;81.91;98653.25;5052552;28;20424;-74
2022/02/27 06:05:07;;;;;;;13.23;6.53;;;-2.30;93.70;;;-3.77;82.32;98656.00;5046405;28;20416;-75
2022/02/27 06:07:33;;;;;;;16.30;6.55;;;-2.30;93.80;;;-3.83;82.25;98657.31;5053416;28;20899;-75
2022/02/27 06:09:59;;;;;;;13.02;6.80;;;-2.20;93.80;;;-3.80;82.44;98664.03;5053879;28;20492;-74
2022/02/27 06:12:25;;;;;;;17.02;6.72;;;-2.30;93.80;;;-3.80;82.21;98666.59;5047228;28;20427;-74
2022/02/27 06:14:51;;;;;;;14.55;5.97;;;-2.30;93.80;;;-3.87;82.32;98668.06;5042818;28;20450;-74
2022/02/27 06:17:17;;;;;;;9.70;5.63;;;-2.30;93.80;;;-3.85;82.32;98669.59;5045334;28;20416;-76
2022/02/27 06:19:44;;;;;;;11.40;5.80;;;-2.30;93.80;;;-3.90;82.85;98679.47;5053188;28;20467;-75
2022/02/27 06:22:10;;;;;;;16.00;5.88;;;-2.30;93.90;;;-3.85;82.45;98669.59;5051752;28;20410;-74
2022/02/27 06:24:36;;;;;;;11.60;6.47;;;-2.30;93.90;;;-3.88;82.76;98681.94;5053631;28;20421;-74
2022/02/27 06:27:02;;;;;;;18.33;6.47;;;-2.30;93.90;;;-3.76;82.38;98675.75;5058294;22;20439;-76
2022/02/27 06:29:28;;;;;;;13.32;6.43;;;-2.30;93.90;;;-3.82;82.69;98684.00;5032878;28;20406;-76
2022/02/27 06:31:54;;;;;;;16.43;6.30;;;-2.30;93.90;;;-3.78;82.98;98685.41;5032285;28;20959;-75
2022/02/27 06:34:20;;;;;;;13.00;6.70;;;-2.30;93.90;;;-3.71;82.77;98686.53;5031771;28;20419;-75
2022/02/27 06:36:47;;;;;;;17.70;7.30;;;-2.20;93.90;;;-3.65;82.51;98689.41;5031896;28;20395;-76
2022/02/27 06:39:13;;;;;;;11.77;6.00;;;-2.20;94.00;;;-3.72;82.67;98690.88;5032684;28;20808;-76
2022/02/27 06:41:39;;;;;;;18.17;6.95;;;-2.20;93.90;;;-3.69;82.59;98689.81;5015582;28;20423;-76
2022/02/27 06:44:05;;;;;;;16.42;7.90;;;-2.20;94.00;;;-3.58;82.93;98690.53;5027068;28;20426;-76
2022/02/27 06:46:31;;;;;;;19.08;6.50;;;-2.10;94.10;;;-3.63;83.05;98694.47;5026594;28;20427;-76
2022/02/27 06:48:57;;;;;;;13.10;6.90;;;-2.10;94.10;;;-3.57;83.06;98693.94;5025258;28;20528;-76
2022/02/27 06:51:23;;;;;;;14.87;7.57;;;-2.10;94.10;;;-3.51;82.70;98696.81;5028070;28;20411;-76
2022/02/27 06:53:50;;;;;;;15.18;6.72;;;-2.10;94.10;;;-3.54;82.73;98697.09;5031184;28;20917;-76
2022/02/27 06:56:16;;;;;;;15.07;6.47;;;-2.00;94.20;;;-3.44;82.96;98697.13;5025438;28;20488;-76
2022/02/27 06:58:42;;;;;;;20.52;7.50;;;-2.00;94.20;;;-3.38;82.87;98703.56;5023168;28;20479;-75
2022/02/27 07:01:09;;;;;;;14.45;6.65;;;-1.90;94.30;;;-3.41;83.53;98701.22;5023370;28;20769;-76
2022/02/27 07:03:35;;;;;;;14.38;7.55;;;-1.90;94.30;;;-3.28;83.57;98697.44;5027360;28;20421;-76
2022/02/27 07:06:01;;;;;;;19.58;7.82;;;-1.80;94.40;;;-3.22;83.50;98706.47;5025055;28;20413;-76
2022/02/27 07:08:27;;;;;;;17.80;8.35;;;-1.80;94.40;;;-3.18;83.24;98695.72;5027522;28;20766;-75
2022/02/27 07:10:55;;;;;;;18.20;8.80;;;-1.70;94.40;;;-3.09;83.55;98694.13;5025877;28;20935;-76
2022/02/27 07:13:21;;;;;;;16.05;8.10;;;-1.70;94.50;;;-3.01;83.21;98702.03;5022731;28;20490;-77
2022/02/27 07:15:47;;;;;;;20.90;8.32;;;-1.60;94.50;;;-2.94;83.68;98705.72;5006778;28;20490;-77
2022/02/27 07:18:13;;;;;;;21.58;8.55;;;-1.50;94.50;;;-2.92;83.70;98703.81;5025561;28;20465;-76
2022/02/27 07:20:39;;;;;;;19.05;8.35;;;-1.50;94.50;;;-2.82;83.48;98711.59;5025488;28;20868;-76
2022/02/27 07:23:05;;;;;;;16.57;8.00;;;-1.40;94.50;;;-2.82;83.79;98704.66;5024920;28;20407;-76
2022/02/27 07:25:31;;;;;;;14.35;8.05;;;-1.40;94.60;;;-2.72;84.05;98709.03;5031879;28;21125;-77
2022/02/27 07:27:58;;;;;;;20.30;7.55;;;-1.30;94.60;;;-2.62;83.99;98705.47;5026436;28;20457;-76
2022/02/27 07:30:24;;;;;;;15.05;7.78;;;-1.20;94.80;;;-2.55;84.28;98716.94;5023544;28;20495;-76
2022/02/27 07:32:50;;;;;;;11.53;7.07;;;-1.10;94.90;;;-2.49;84.31;98713.84;5030564;28;20529;-76
2022/02/27 07:35:16;;;;;;;14.85;6.80;;;-1.10;94.80;;;-2.40;83.83;98717.34;5027336;28;20408;-76
2022/02/27 07:37:42;;;;;;;16.00;7.20;;;-1.00;94.70;;;-2.33;83.84;98720.25;5027531;28;20418;-76
2022/02/27 07:40:10;;;;;;;14.88;7.40;;;-0.90;94.70;;;-2.24;83.80;98727.19;5020388;28;20948;-75
2022/02/27 07:42:36;;;;;;;12.98;6.47;;;-0.90;94.60;;;-2.19;83.29;98714.63;5022399;28;20862;-75
2022/02/27 07:45:06;;;;;;;15.48;7.30;;;-0.80;94.50;;;-2.11;83.36;98717.38;5028548;28;20419;-79
2022/02/27 07:47:32;;;;;;;12.50;7.03;;;-0.70;94.50;;;-2.03;82.59;98722.69;5024879;28;20410;-81
2022/02/27 07:49:58;;;;;;;20.58;8.55;;;-0.60;94.50;;;-1.93;82.45;98722.63;5009344;28;20423;-73
2022/02/27 07:52:23;;;;;;;14.80;7.78;;;-0.60;94.30;;;-1.86;82.11;98728.91;5028060;28;20424;-71
2022/02/27 07:54:49;;;;;;;10.45;6.47;;;-0.50;94.30;;;-1.80;82.15;98726.56;5025369;28;20494;-71
2022/02/27 07:57:15;;;;;;;16.80;8.30;;;-0.40;94.20;;;-1.70;82.08;98734.34;5021722;28;20419;-73
2022/02/27 07:59:41;;;;;;;17.83;8.15;;;-0.30;94.10;;;-1.62;82.20;98729.28;5020048;28;20414;-74
2022/02/27 08:02:09;;;;;;;17.55;8.00;;;-0.30;94.40;;;-1.62;83.79;98742.25;5024415;28;20407;-74
2022/02/27 08:04:34;;;;;;;16.00;7.78;;;-0.20;95.50;;;-1.57;84.93;98743.44;5003813;28;20451;-75
2022/02/27 08:07:03;;;;;;;16.02;8.50;;;-0.20;95.90;;;-1.50;85.54;98741.09;5021882;28;20553;-74
2022/02/27 08:09:29;;;;;;;17.27;8.40;;;-0.10;96.20;;;-1.44;86.14;98737.97;5024025;28;20415;-73
2022/02/27 08:11:55;;;;;;;20.48;9.43;;;-0.10;96.30;;;-1.39;86.41;98738.34;5024281;28;20425;-73
2022/02/27 08:14:21;;;;;;;18.70;8.40;;;0.00;96.40;;;-1.31;86.94;98737.63;5024791;28;20450;-73
2022/02/27 08:16:47;;;;;;;14.27;7.50;;;0.10;96.50;;;-1.25;86.82;98748.28;5024781;28;20407;-75
2022/02/27 08:19:14;;;;;;;19.35;9.02;;;0.10;96.60;;;-1.20;87.59;98737.44;5020375;28;20854;-75
2022/02/27 08:21:40;;;;;;;16.33;7.90;;;0.20;96.70;;;-1.12;87.74;98747.13;5021598;28;20412;-76
2022/02/27 08:24:08;;;;;;;19.10;9.25;;;0.20;96.70;;;-1.06;87.93;98738.78;5028397;28;20422;-74
2022/02/27 08:26:35;;;;;;;13.00;7.68;;;0.30;97.20;;;-0.97;87.89;98751.69;5029836;28;20395;-75
2022/02/27 08:29:02;;;;;;;14.13;8.25;;;0.40;96.90;;;-0.90;87.94;98744.94;5030467;28;20571;-75
2022/02/27 08:31:29;;;;;;;17.73;9.18;;;0.40;96.90;;;-0.83;88.45;98742.63;5030893;28;20399;-74
2022/02/27 08:33:55;;;;;;;18.65;8.85;;;0.50;97.00;;;-0.72;88.45;98739.78;5030295;28;20403;-74
2022/02/27 08:36:22;;;;;;;16.63;8.27;;;0.60;97.00;;;-0.65;88.43;98746.03;5028574;28;20403;-74
2022/02/27 08:38:48;;;;;;;19.52;9.82;;;0.60;97.00;;;-0.56;88.21;98739.16;5029706;28;20472;-76
2022/02/27 08:41:14;;;;;;;16.38;8.90;;;0.80;97.00;;;-0.46;88.32;98739.91;5011451;28;20509;-75
2022/02/27 08:43:40;;;;;;;20.83;9.95;;;0.80;97.00;;;-0.35;88.45;98738.84;5027717;28;20426;-75
2022/02/27 08:46:06;;;;;;;14.87;8.67;;;0.90;96.90;;;-0.24;88.09;98736.88;5025518;28;20491;-73
2022/02/27 08:48:32;;;;;;;20.15;9.32;;;1.00;96.80;;;-0.17;88.09;98745.69;5031026;28;20486;-75
2022/02/27 08:50:58;;;;;;;18.30;8.93;;;1.20;96.20;;;-0.04;87.15;98743.53;5021933;28;20419;-75
2022/02/27 08:53:25;;;;;;;13.02;8.30;;;1.30;95.60;;;0.10;86.56;98742.16;5013927;28;20446;-75
2022/02/27 08:55:53;;;;;;;14.45;7.07;;;1.40;95.80;;;0.20;86.20;98748.09;5027948;28;20403;-72
2022/02/27 08:58:19;;;;;;;13.40;8.52;;;1.50;95.90;;;0.28;85.18;98747.34;5027258;28;20482;-73
2022/02/27 09:00:44;;;;;;;15.55;7.85;;;1.60;94.50;;;0.37;84.50;98747.25;5026530;28;20531;-73
2022/02/27 09:03:10;;;;;;;14.85;6.90;;;1.60;95.10;;;0.46;84.56;98742.06;5023393;28;20508;-73
2022/02/27 09:05:36;;;;;;;15.32;7.75;;;1.70;95.10;;;0.51;84.40;98740.66;5030496;28;20485;-73
2022/02/27 09:08:03;;;;;;;13.38;7.70;;;1.70;95.10;;;0.55;83.59;98741.16;5030109;28;20422;-73
2022/02/27 09:10:30;;;;;;;14.32;7.47;;;1.80;94.60;;;0.60;82.94;98744.91;5030227;28;20400;-72
2022/02/27 09:12:56;;;;;;;13.65;7.50;;;1.80;94.20;;;0.69;81.64;98735.38;5018355;28;20399;-76
2022/02/27 09:15:22;;;;;;;15.85;6.57;;;2.00;93.40;;;0.80;80.88;98742.09;5021301;28;20412;-73
2022/02/27 09:17:50;;;;;;;11.70;7.30;;;2.00;93.00;;;0.95;79.39;98741.38;5023666;28;20408;-74
2022/02/27 09:20:16;;;;;;;16.60;6.80;;;2.20;92.20;;;1.04;78.07;98747.44;5019036;28;20512;-73
2022/02/27 09:22:42;;;;;;;12.75;6.70;;;2.30;91.70;;;1.10;78.08;98739.78;5019409;28;20410;-75
2022/02/27 09:25:09;;;;;;;11.82;6.50;;;2.30;90.60;;;1.16;78.11;98752.19;5019167;28;20428;-75
2022/02/27 09:27:36;;;;;;;16.02;6.82;;;2.30;91.70;;;1.18;77.50;98754.66;5023237;28;20439;-76
2022/02/27 09:30:04;;;;;;;13.43;7.10;;;2.40;91.10;;;1.26;77.60;98746.88;5022366;28;20419;-77
2022/02/27 09:32:30;;;;;;;14.55;6.55;;;2.50;91.50;;;1.30;77.97;98742.13;5019905;28;20401;-75
2022/02/27 09:34:56;;;;;;;14.40;7.00;;;2.50;92.00;;;1.39;76.12;98733.34;5022964;28;20422;-73
2022/02/27 09:37:21;;;;;;;13.73;6.63;;;2.60;90.60;;;1.45;77.65;98733.53;5019508;28;20411;-74
2022/02/27 09:39:48;;;;;;;12.88;7.13;;;2.60;91.50;;;1.54;76.74;98736.97;5018823;28;20395;-76
2022/02/27 09:42:14;;;;;;;11.07;6.33;;;2.70;88.60;;;1.64;75.31;98736.84;5017410;28;20442;-76
2022/02/27 09:44:43;;;;;;;14.10;7.55;;;2.80;90.10;;;1.65;75.39;98730.63;5022126;28;20469;-79
2022/02/27 09:47:12;;;;;;;12.57;6.57;;;2.90;89.80;;;1.79;76.69;98720.38;5002108;28;20425;-76
2022/02/27 09:49:42;;;;;;;11.57;5.82;;;2.90;90.70;;;2.01;76.46;98731.13;5017989;28;20423;-75
2022/02/27 09:52:08;;;;;;;9.60;6.32;;;3.10;90.50;;;2.20;76.39;98725.56;4999118;28;20411;-75
2022/02/27 09:54:35;;;;;;;8.68;6.13;;;3.30;90.70;;;2.47;75.42;98721.78;5024070;28;20982;-75
2022/02/27 09:57:01;;;;;;;10.18;5.40;;;3.50;90.00;;;2.63;75.25;98722.53;5019322;28;20415;-75
2022/02/27 09:59:26;;;;;;;11.50;5.40;;;3.70;90.00;;;2.72;75.19;98724.16;5019178;28;20447;-77
2022/02/27 10:02:03;;;;;;;10.13;5.55;;;3.80;90.00;;;2.83;72.41;98722.16;5024448;28;20419;-75
2022/02/27 10:04:33;;;;;;;11.18;5.55;;;3.90;85.60;;;3.29;73.16;98729.16;5018489;28;20483;-73
2022/02/27 10:06:59;;;;;;;9.27;4.63;;;4.20;87.80;;;3.93;73.34;98721.84;5020090;28;20410;-73
2022/02/27 10:09:25;;;;;;;9.85;5.15;;;4.90;88.90;;;4.54;70.94;98723.44;5021492;28;20403;-75
2022/02/27 10:11:52;;;;;;;9.45;4.70;;;5.70;84.60;;;5.01;67.34;98735.38;5022433;28;20403;-73